Time;durP1;ratioP1;P1;durP2;ratioP2;P2;SDS_P1;SDS_P2;PMS_P1;PMS_P2;Temp;Humidity;BMP_temperature;BMP_pressure;BME280_temperature;BME280_humidity;BME280_pressure;Samples;Min_cycle;Max_cycle;Signal;HPM_P1;HPM_P2
2022/12/28 00:00:55;;;;;;;1.37;1.00;;;4.00;99.90;;;;;;5031264;28;20187;-80
2022/12/28 00:03:20;;;;;;;2.60;1.17;;;4.10;99.90;;;;;;5047867;28;20264;-80
2022/12/28 00:05:46;;;;;;;1.00;0.90;;;4.10;99.90;;;;;;5047781;28;20556;-81
2022/12/28 00:08:12;;;;;;;0.93;0.87;;;4.10;99.90;;;;;;5033448;28;20188;-81
2022/12/28 00:10:37;;;;;;;2.10;1.00;;;4.20;99.90;;;;;;5036730;28;20633;-80
2022/12/28 00:13:03;;;;;;;1.57;0.80;;;4.20;99.90;;;;;;5037786;28;20217;-80
2022/12/28 00:15:28;;;;;;;1.17;1.00;;;4.30;99.90;;;;;;5037176;28;20504;-82
2022/12/28 00:17:56;;;;;;;7.37;1.23;;;4.30;99.90;;;;;;5054002;28;20197;-80
2022/12/28 00:20:21;;;;;;;0.80;0.60;;;4.30;99.90;;;;;;5053858;28;20189;-82
2022/12/28 00:22:47;;;;;;;2.50;0.90;;;4.30;99.90;;;;;;5053728;28;20296;-80
2022/12/28 00:25:13;;;;;;;3.00;0.80;;;4.30;99.90;;;;;;5036958;28;20205;-79
2022/12/28 00:27:38;;;;;;;1.03;0.93;;;4.30;99.90;;;;;;5053988;28;20731;-82
2022/12/28 00:30:04;;;;;;;2.30;0.90;;;4.20;99.90;;;;;;5053097;28;20282;-80
2022/12/28 00:32:30;;;;;;;0.80;0.73;;;4.30;99.90;;;;;;5052608;28;20190;-81
2022/12/28 00:34:56;;;;;;;1.77;0.60;;;4.30;99.90;;;;;;5052769;28;20965;-82
2022/12/28 00:37:21;;;;;;;2.73;0.73;;;4.30;99.90;;;;;;5052748;28;20185;-81
2022/12/28 00:39:47;;;;;;;1.20;0.70;;;4.40;99.90;;;;;;5052620;28;20677;-81
2022/12/28 00:42:12;;;;;;;1.47;0.60;;;4.50;99.90;;;;;;5035479;28;20228;-79
2022/12/28 00:44:38;;;;;;;1.93;0.80;;;4.40;99.90;;;;;;5034870;28;20590;-81
2022/12/28 00:47:04;;;;;;;0.90;0.80;;;4.40;99.90;;;;;;5051182;28;20890;-82
2022/12/28 00:49:29;;;;;;;1.73;0.80;;;4.40;99.90;;;;;;5034569;28;20923;-81
2022/12/28 00:51:55;;;;;;;1.20;1.10;;;4.50;99.90;;;;;;5051296;28;20252;-80
2022/12/28 00:54:21;;;;;;;0.87;0.70;;;4.50;99.90;;;;;;5034418;28;20776;-82
2022/12/28 00:56:46;;;;;;;4.50;1.00;;;4.70;99.90;;;;;;5034752;28;20201;-79
2022/12/28 00:59:12;;;;;;;4.83;1.10;;;4.80;99.90;;;;;;5052310;28;20186;-81
2022/12/28 01:01:38;;;;;;;2.13;1.00;;;4.80;99.90;;;;;;5050797;28;20612;-81
2022/12/28 01:04:04;;;;;;;1.25;0.70;;;4.70;99.90;;;;;;5051061;28;20722;-81
2022/12/28 01:06:30;;;;;;;0.73;0.50;;;4.70;99.90;;;;;;5051184;28;20293;-80
2022/12/28 01:08:56;;;;;;;3.27;0.60;;;4.70;99.90;;;;;;5050792;28;20505;-80
2022/12/28 01:11:27;;;;;;;1.23;0.90;;;4.70;99.90;;;;;;5034353;28;20190;-80
2022/12/28 01:13:55;;;;;;;0.90;0.70;;;4.70;99.90;;;;;;5050559;28;20220;-81
2022/12/28 01:16:29;;;;;;;2.67;0.90;;;4.70;99.90;;;;;;5050450;28;20504;-80
2022/12/28 01:18:57;;;;;;;1.00;0.60;;;4.70;99.90;;;;;;5033535;28;20266;-79
2022/12/28 01:21:26;;;;;;;0.70;0.50;;;4.70;99.90;;;;;;5048801;28;20456;-78
2022/12/28 01:23:58;;;;;;;1.10;0.70;;;4.70;99.90;;;;;;5050044;28;20302;-79
2022/12/28 01:26:25;;;;;;;1.75;0.60;;;4.70;99.90;;;;;;5050025;28;20409;-79
2022/12/28 01:28:51;;;;;;;1.67;0.80;;;4.80;99.90;;;;;;5050098;28;20652;-79
2022/12/28 01:31:18;;;;;;;4.47;1.37;;;4.90;99.90;;;;;;5051094;28;20187;-81
2022/12/28 01:33:44;;;;;;;5.30;0.50;;;4.90;99.90;;;;;;5050163;28;20445;-82
2022/12/28 01:36:15;;;;;;;6.23;0.80;;;5.00;99.90;;;;;;5051064;28;20449;-81
2022/12/28 01:38:42;;;;;;;0.80;0.53;;;5.00;99.90;;;;;;5033366;28;20476;-82
2022/12/28 01:41:13;;;;;;;2.17;0.50;;;5.10;99.90;;;;;;5050844;28;20457;-81
2022/12/28 01:43:43;;;;;;;1.93;0.70;;;5.10;99.90;;;;;;5033168;28;20584;-82
2022/12/28 01:46:18;;;;;;;1.43;0.60;;;5.00;99.90;;;;;;5049474;28;20422;-81
2022/12/28 01:48:48;;;;;;;1.90;0.50;;;5.00;99.90;;;;;;5032859;28;21293;-81
2022/12/28 01:51:15;;;;;;;1.40;0.57;;;5.00;99.90;;;;;;5051168;28;20213;-81
2022/12/28 01:53:41;;;;;;;1.20;0.70;;;5.10;99.90;;;;;;5049057;28;20446;-81
2022/12/28 01:56:07;;;;;;;2.70;1.20;;;5.10;99.90;;;;;;5033146;28;20433;-81
2022/12/28 01:58:34;;;;;;;1.53;0.50;;;5.10;99.90;;;;;;5032085;28;20468;-81
2022/12/28 02:01:00;;;;;;;1.93;0.67;;;5.10;99.90;;;;;;5048977;28;20831;-81
2022/12/28 02:03:28;;;;;;;1.33;0.60;;;5.20;99.90;;;;;;5032439;28;21033;-81
2022/12/28 02:06:00;;;;;;;1.77;0.60;;;5.20;99.90;;;;;;5033812;28;21256;-82
2022/12/28 02:08:29;;;;;;;2.33;0.70;;;5.20;99.90;;;;;;5051141;28;20418;-82
2022/12/28 02:10:55;;;;;;;0.80;0.63;;;5.30;99.90;;;;;;5049201;28;21051;-79
2022/12/28 02:13:23;;;;;;;0.97;0.60;;;5.20;99.90;;;;;;5048812;28;20430;-79
2022/12/28 02:15:52;;;;;;;1.57;0.63;;;5.30;99.90;;;;;;5050336;28;20411;-80
2022/12/28 02:18:19;;;;;;;1.20;0.90;;;5.20;99.90;;;;;;5032938;28;20846;-80
2022/12/28 02:21:17;;;;;;;2.17;0.87;;;5.20;99.90;;;;;;5032332;28;20954;-80
2022/12/28 02:23:52;;;;;;;1.20;0.87;;;5.20;99.90;;;;;;5050385;28;20997;-79
2022/12/28 02:26:42;;;;;;;0.80;0.70;;;5.10;99.90;;;;;;5049272;28;20531;-80
2022/12/28 02:29:21;;;;;;;1.90;0.83;;;5.00;99.90;;;;;;5050416;28;20424;-79
2022/12/28 02:31:56;;;;;;;5.03;2.50;;;5.00;99.90;;;;;;5048818;28;20410;-80
2022/12/28 02:35:03;;;;;;;2.63;0.70;;;5.00;99.90;;;;;;5050259;28;20578;-80
2022/12/28 02:37:46;;;;;;;1.88;0.98;;;5.10;99.90;;;;;;5008301;28;20960;-80
2022/12/28 02:40:40;;;;;;;2.13;1.23;;;5.00;99.90;;;;;;5008555;28;20185;-80
2022/12/28 02:43:06;;;;;;;1.73;0.97;;;5.10;99.90;;;;;;5025126;28;20461;-80
2022/12/28 02:51:33;;;;;;;1.10;0.98;;;5.10;99.90;;;;;;5049949;28;20197;-80
2022/12/28 02:57:21;;;;;;;2.40;1.20;;;5.20;99.90;;;;;;5049724;28;20519;-79
2022/12/28 02:59:58;;;;;;;1.30;1.00;;;5.20;99.90;;;;;;5048432;28;20796;-79
2022/12/28 03:02:50;;;;;;;2.30;1.05;;;5.20;99.90;;;;;;5048048;28;20245;-79
2022/12/28 03:08:51;;;;;;;2.23;0.70;;;5.30;99.90;;;;;;5049548;28;20392;-81
2022/12/28 03:11:21;;;;;;;0.90;0.80;;;5.30;99.90;;;;;;5048765;28;20407;-81
2022/12/28 03:14:07;;;;;;;3.40;1.30;;;5.30;99.90;;;;;;5048034;28;20821;-80
2022/12/28 03:25:41;;;;;;;1.13;1.03;;;5.30;99.90;;;;;;5031794;28;20436;-80
2022/12/28 03:33:21;;;;;;;1.47;0.80;;;5.80;99.90;;;;;;5048257;28;21092;-80
2022/12/28 03:35:59;;;;;;;3.47;1.33;;;5.80;99.90;;;;;;5049354;28;20425;-80
2022/12/28 03:39:00;;;;;;;4.30;0.97;;;5.80;99.90;;;;;;5047929;28;20176;-81
2022/12/28 03:41:41;;;;;;;3.00;1.10;;;5.90;99.90;;;;;;5046361;28;20449;-82
2022/12/28 03:44:16;;;;;;;1.00;0.77;;;5.90;99.90;;;;;;5050061;28;20533;-80
2022/12/28 03:46:54;;;;;;;1.67;0.97;;;5.90;99.90;;;;;;5052557;28;20405;-81
2022/12/28 03:49:23;;;;;;;1.67;0.93;;;5.90;99.90;;;;;;5035719;28;20780;-79
2022/12/28 03:51:49;;;;;;;3.50;0.90;;;5.90;99.90;;;;;;5035566;28;20441;-79
2022/12/28 03:54:16;;;;;;;2.10;0.83;;;6.00;99.90;;;;;;5053498;28;20478;-79
2022/12/28 03:56:47;;;;;;;3.57;1.00;;;5.90;99.90;;;;;;5035373;28;20852;-80
2022/12/28 03:59:13;;;;;;;1.37;0.87;;;6.10;99.90;;;;;;5035450;28;20540;-80
2022/12/28 04:01:38;;;;;;;1.20;0.67;;;6.00;99.90;;;;;;5035490;28;20461;-80
2022/12/28 04:04:04;;;;;;;1.03;0.80;;;6.00;99.90;;;;;;5035548;28;20496;-80
2022/12/28 04:06:29;;;;;;;1.10;0.63;;;6.10;99.90;;;;;;5035650;28;20180;-81
2022/12/28 04:08:55;;;;;;;1.83;0.63;;;6.30;99.90;;;;;;5036462;28;20673;-81
2022/12/28 04:11:21;;;;;;;1.70;0.70;;;6.10;99.90;;;;;;5036515;28;20192;-80
2022/12/28 04:13:46;;;;;;;2.27;0.77;;;6.20;99.90;;;;;;5052892;28;20238;-81
2022/12/28 04:16:13;;;;;;;2.10;0.90;;;6.10;99.90;;;;;;5052321;28;20192;-81
2022/12/28 04:18:40;;;;;;;2.93;0.63;;;6.20;99.90;;;;;;5034998;28;20275;-80
2022/12/28 04:21:07;;;;;;;3.53;0.83;;;6.20;99.90;;;;;;5051080;28;20422;-79
2022/12/28 04:23:32;;;;;;;1.53;0.50;;;6.30;99.90;;;;;;5052234;28;20551;-80
2022/12/28 04:26:04;;;;;;;1.67;0.60;;;6.30;99.90;;;;;;5050990;28;20523;-79
2022/12/28 04:28:31;;;;;;;1.90;0.70;;;6.20;99.90;;;;;;5052446;28;20172;-79
2022/12/28 04:30:57;;;;;;;0.80;0.60;;;6.30;99.90;;;;;;5050520;28;20493;-79
2022/12/28 04:33:23;;;;;;;1.10;0.60;;;6.30;99.90;;;;;;5051904;28;20418;-79
2022/12/28 04:35:50;;;;;;;1.90;0.90;;;6.20;99.90;;;;;;5050931;28;20911;-78
2022/12/28 04:38:16;;;;;;;1.70;0.73;;;6.30;99.90;;;;;;5050859;28;20426;-79
2022/12/28 04:40:41;;;;;;;1.10;0.70;;;6.30;99.90;;;;;;5050563;28;20437;-80
2022/12/28 04:43:08;;;;;;;0.87;0.57;;;6.20;99.90;;;;;;5050463;28;21147;-80
2022/12/28 04:45:33;;;;;;;1.23;0.70;;;6.30;99.90;;;;;;5034306;28;21305;-78
2022/12/28 04:47:59;;;;;;;1.83;0.90;;;6.30;99.90;;;;;;5052793;28;20414;-78
2022/12/28 04:50:28;;;;;;;4.03;1.07;;;6.30;99.90;;;;;;5051627;28;20665;-80
2022/12/28 04:52:53;;;;;;;0.77;0.53;;;6.50;99.90;;;;;;5052135;28;20264;-80
2022/12/28 04:55:19;;;;;;;5.33;1.00;;;6.50;99.90;;;;;;5052334;28;20501;-82
2022/12/28 04:57:46;;;;;;;1.50;0.80;;;6.40;99.90;;;;;;5053307;28;20865;-82
2022/12/28 05:00:13;;;;;;;2.10;1.00;;;6.50;99.90;;;;;;5054900;28;20180;-83
2022/12/28 05:02:39;;;;;;;2.20;0.70;;;6.50;99.90;;;;;;5042646;28;20571;-82
2022/12/28 05:05:05;;;;;;;3.27;0.93;;;6.50;99.90;;;;;;5038240;28;21291;-82
2022/12/28 05:07:31;;;;;;;3.73;1.00;;;6.50;99.90;;;;;;5055203;28;20507;-82
2022/12/28 05:09:57;;;;;;;2.70;0.80;;;6.50;99.90;;;;;;5040872;28;20512;-82
2022/12/28 05:12:22;;;;;;;7.40;1.20;;;6.50;99.90;;;;;;5056956;28;20199;-82
2022/12/28 05:14:48;;;;;;;1.10;0.90;;;6.40;99.90;;;;;;5036096;28;20269;-82
2022/12/28 05:17:14;;;;;;;1.30;0.90;;;6.40;99.90;;;;;;5057669;28;20268;-81
2022/12/28 05:19:39;;;;;;;2.40;1.30;;;6.40;99.90;;;;;;5039869;28;20660;-81
2022/12/28 05:22:10;;;;;;;2.97;1.13;;;6.40;99.90;;;;;;5038926;28;20352;-81
2022/12/28 05:24:37;;;;;;;4.67;0.80;;;6.20;99.90;;;;;;5056436;28;20211;-82
2022/12/28 05:27:02;;;;;;;2.03;1.30;;;6.40;99.90;;;;;;5037363;28;20427;-81
2022/12/28 05:29:28;;;;;;;3.47;1.30;;;6.30;99.90;;;;;;5038151;28;20425;-81
2022/12/28 05:31:54;;;;;;;1.80;1.50;;;6.20;99.90;;;;;;5036922;28;20464;-81
2022/12/28 05:34:19;;;;;;;1.57;1.47;;;6.40;99.90;;;;;;5036746;28;20282;-82
2022/12/28 05:36:45;;;;;;;6.87;1.80;;;6.10;99.90;;;;;;5036487;28;20194;-81
2022/12/28 05:39:10;;;;;;;2.23;0.93;;;6.10;99.90;;;;;;5035265;28;20195;-82
2022/12/28 05:41:36;;;;;;;2.70;1.30;;;6.10;99.90;;;;;;5051217;28;20257;-82
2022/12/28 05:44:02;;;;;;;2.57;1.30;;;6.10;99.90;;;;;;5034327;28;20315;-83
2022/12/28 05:46:30;;;;;;;2.90;1.40;;;6.10;99.90;;;;;;5050304;28;20190;-81
2022/12/28 05:48:56;;;;;;;3.03;1.20;;;6.30;99.90;;;;;;5049348;28;20188;-81
2022/12/28 05:51:24;;;;;;;1.30;1.20;;;6.20;99.90;;;;;;5049009;28;20430;-80
2022/12/28 05:53:50;;;;;;;1.30;1.20;;;6.20;99.90;;;;;;5049033;28;20452;-79
2022/12/28 05:56:28;;;;;;;1.83;1.20;;;6.20;99.90;;;;;;5032360;28;20525;-79
2022/12/28 05:58:59;;;;;;;5.80;1.50;;;6.20;99.90;;;;;;5050755;28;20583;-79
2022/12/28 06:01:28;;;;;;;1.53;1.27;;;6.20;99.90;;;;;;5050425;28;20423;-79
2022/12/28 06:03:58;;;;;;;1.23;1.10;;;6.40;99.90;;;;;;5050547;28;21040;-81
2022/12/28 06:06:25;;;;;;;2.87;1.63;;;6.20;99.90;;;;;;5031842;28;20427;-79
2022/12/28 06:08:50;;;;;;;3.50;1.70;;;6.30;99.90;;;;;;5032633;28;20429;-81
2022/12/28 06:11:18;;;;;;;3.00;1.60;;;6.30;99.90;;;;;;5050181;28;20418;-79
2022/12/28 06:13:44;;;;;;;2.90;1.80;;;6.20;99.90;;;;;;5050140;28;20723;-81
2022/12/28 06:16:21;;;;;;;2.83;1.60;;;6.20;99.90;;;;;;5050361;28;20423;-82
2022/12/28 06:18:47;;;;;;;2.20;2.03;;;6.30;99.90;;;;;;5050771;28;20222;-80
2022/12/28 06:21:19;;;;;;;2.10;2.00;;;6.20;99.90;;;;;;5051964;28;20424;-79
2022/12/28 06:23:45;;;;;;;4.00;2.10;;;6.20;99.90;;;;;;5050384;28;20469;-80
2022/12/28 06:26:14;;;;;;;6.10;2.40;;;6.20;99.90;;;;;;5051892;28;20931;-81
2022/12/28 06:28:41;;;;;;;2.40;2.20;;;6.10;99.90;;;;;;5052131;28;20426;-82
2022/12/28 06:31:21;;;;;;;3.70;2.00;;;6.20;99.90;;;;;;5034736;28;20894;-78
2022/12/28 06:33:48;;;;;;;1.67;1.57;;;6.20;99.90;;;;;;5049382;28;20953;-78
2022/12/28 06:36:23;;;;;;;2.80;1.93;;;6.10;99.90;;;;;;5031423;28;20426;-76
2022/12/28 06:38:50;;;;;;;3.20;2.13;;;6.20;99.90;;;;;;5049681;28;20489;-77
2022/12/28 06:41:17;;;;;;;3.00;2.27;;;6.20;99.90;;;;;;5048518;28;20450;-76
2022/12/28 06:43:44;;;;;;;2.13;1.90;;;6.10;99.90;;;;;;5050503;28;20858;-78
2022/12/28 06:46:11;;;;;;;9.10;2.83;;;6.20;99.90;;;;;;5049036;28;20845;-78
2022/12/28 06:48:36;;;;;;;1.90;1.60;;;6.20;99.90;;;;;;5050565;28;20410;-77
2022/12/28 06:51:23;;;;;;;2.47;2.27;;;6.20;99.90;;;;;;5050202;28;20418;-77
2022/12/28 06:53:50;;;;;;;2.47;2.27;;;6.10;99.90;;;;;;5050413;28;20207;-77
2022/12/28 06:56:18;;;;;;;4.20;2.60;;;6.10;99.90;;;;;;5049893;28;21056;-78
2022/12/28 06:58:46;;;;;;;3.10;2.00;;;6.20;99.90;;;;;;5048776;28;20422;-77
2022/12/28 07:01:18;;;;;;;5.80;2.40;;;6.10;99.90;;;;;;5050523;28;20425;-77
2022/12/28 07:03:45;;;;;;;2.37;2.10;;;6.10;99.90;;;;;;5033077;28;20573;-78
2022/12/28 07:06:11;;;;;;;3.60;2.30;;;6.10;99.90;;;;;;5050398;28;20467;-77
2022/12/28 07:08:38;;;;;;;3.97;2.20;;;6.00;99.90;;;;;;5048383;28;20422;-77
2022/12/28 07:11:06;;;;;;;5.40;2.50;;;6.10;99.90;;;;;;5049629;28;20410;-77
2022/12/28 07:13:33;;;;;;;3.77;2.60;;;6.00;99.90;;;;;;5031668;28;21048;-77
2022/12/28 07:16:08;;;;;;;1.97;1.77;;;6.10;99.90;;;;;;5050111;28;20569;-77
2022/12/28 07:18:34;;;;;;;3.20;2.23;;;6.00;99.90;;;;;;5046815;28;20436;-77
2022/12/28 07:21:06;;;;;;;2.17;2.07;;;5.90;99.90;;;;;;5048124;28;20419;-77
2022/12/28 07:23:32;;;;;;;2.40;2.00;;;6.00;99.90;;;;;;5047699;28;20519;-77
2022/12/28 07:26:08;;;;;;;3.00;2.00;;;5.90;99.90;;;;;;5048145;28;20888;-77
2022/12/28 07:28:39;;;;;;;3.50;2.03;;;5.90;99.90;;;;;;5049481;28;20418;-77
2022/12/28 07:31:11;;;;;;;2.90;2.27;;;5.90;99.90;;;;;;5049517;28;20818;-77
2022/12/28 07:33:37;;;;;;;2.43;2.23;;;6.00;99.90;;;;;;5048168;28;20828;-77
2022/12/28 07:36:05;;;;;;;2.30;2.03;;;6.00;99.90;;;;;;5047819;28;20429;-77
2022/12/28 07:38:31;;;;;;;3.08;2.10;;;6.10;99.90;;;;;;5049312;28;20509;-77
2022/12/28 07:41:08;;;;;;;1.93;1.60;;;6.10;99.90;;;;;;5049174;28;20329;-76
2022/12/28 07:43:34;;;;;;;2.60;2.00;;;6.20;99.90;;;;;;5049191;28;20478;-77
2022/12/28 07:46:05;;;;;;;3.50;1.93;;;6.20;99.90;;;;;;5049365;28;20410;-77
2022/12/28 07:48:31;;;;;;;2.80;1.93;;;6.20;99.90;;;;;;5049400;28;20422;-77
2022/12/28 07:51:03;;;;;;;1.92;1.83;;;6.20;99.90;;;;;;5031468;28;20503;-76
2022/12/28 07:53:29;;;;;;;2.25;2.05;;;6.40;99.90;;;;;;5047787;28;20191;-77
2022/12/28 07:55:58;;;;;;;2.67;2.07;;;6.30;99.90;;;;;;5049429;28;20184;-77
2022/12/28 07:58:25;;;;;;;2.13;1.77;;;6.40;99.90;;;;;;5049417;28;20180;-77
2022/12/28 08:00:50;;;;;;;2.13;1.73;;;6.50;99.90;;;;;;5049530;28;20418;-77
2022/12/28 08:03:19;;;;;;;2.40;2.20;;;6.50;99.90;;;;;;5046934;28;20554;-76
2022/12/28 08:05:45;;;;;;;1.00;0.90;;;6.60;99.90;;;;;;5047886;28;20703;-77
2022/12/28 08:08:11;;;;;;;2.17;1.90;;;6.60;99.90;;;;;;5048260;28;20422;-77
2022/12/28 08:10:37;;;;;;;2.63;2.10;;;6.60;99.90;;;;;;5049337;28;20420;-77
2022/12/28 08:13:02;;;;;;;2.60;2.00;;;6.60;99.90;;;;;;5049524;28;20414;-77
2022/12/28 08:15:28;;;;;;;2.67;2.03;;;6.60;99.90;;;;;;5048241;28;20200;-77
2022/12/28 08:17:55;;;;;;;6.27;2.43;;;6.70;99.90;;;;;;5048131;28;20680;-76
2022/12/28 08:20:21;;;;;;;3.03;2.63;;;6.70;99.90;;;;;;5049977;28;20192;-77
2022/12/28 08:22:47;;;;;;;2.67;2.43;;;6.60;99.90;;;;;;5049331;28;20458;-77
2022/12/28 08:25:13;;;;;;;2.00;1.80;;;6.70;99.90;;;;;;5047967;28;20438;-77
2022/12/28 08:27:38;;;;;;;2.27;2.07;;;6.60;99.90;;;;;;5048249;28;20182;-76
2022/12/28 08:30:05;;;;;;;2.70;1.93;;;6.50;99.90;;;;;;5049744;28;20180;-77
2022/12/28 08:32:31;;;;;;;3.80;2.40;;;6.50;99.90;;;;;;5051657;28;20291;-77
2022/12/28 08:34:56;;;;;;;3.53;2.27;;;6.50;99.90;;;;;;5051224;28;20553;-77
2022/12/28 08:37:22;;;;;;;4.00;2.40;;;6.50;99.90;;;;;;5050616;28;20188;-77
2022/12/28 08:39:47;;;;;;;3.53;2.67;;;6.50;99.90;;;;;;5051302;28;20226;-77
2022/12/28 08:42:13;;;;;;;4.90;3.40;;;6.50;99.90;;;;;;5051033;28;20237;-77
2022/12/28 08:44:38;;;;;;;6.03;3.90;;;6.50;99.90;;;;;;5035013;28;20268;-77
2022/12/28 08:47:04;;;;;;;5.90;4.13;;;6.70;99.90;;;;;;5051299;28;20198;-78
2022/12/28 08:49:30;;;;;;;4.60;3.13;;;6.50;99.90;;;;;;5051124;28;20188;-77
2022/12/28 08:51:55;;;;;;;3.00;2.00;;;6.30;99.90;;;;;;5051110;28;20210;-77
2022/12/28 08:54:21;;;;;;;3.30;3.00;;;6.40;99.90;;;;;;5053092;28;20574;-77
2022/12/28 08:56:47;;;;;;;3.70;2.77;;;6.50;99.90;;;;;;5052451;28;20184;-77
2022/12/28 08:59:15;;;;;;;2.90;2.03;;;6.40;99.90;;;;;;5051260;28;20207;-77
2022/12/28 09:01:40;;;;;;;3.07;2.80;;;6.50;99.90;;;;;;5051212;28;20191;-78
2022/12/28 09:04:09;;;;;;;4.20;2.30;;;6.50;99.90;;;;;;5052316;28;20434;-77
2022/12/28 09:06:37;;;;;;;2.30;2.10;;;6.50;99.90;;;;;;5035158;28;20226;-78
2022/12/28 09:09:05;;;;;;;6.13;3.20;;;6.60;99.90;;;;;;5051300;28;20998;-77
2022/12/28 09:11:32;;;;;;;2.80;2.60;;;6.60;99.90;;;;;;5052826;28;20521;-77
2022/12/28 09:13:57;;;;;;;3.30;2.57;;;6.60;99.90;;;;;;5052084;28;20442;-76
2022/12/28 09:16:26;;;;;;;4.00;2.90;;;6.70;99.90;;;;;;5052897;28;20422;-78
2022/12/28 09:18:57;;;;;;;3.70;2.70;;;6.70;99.90;;;;;;5050731;28;20291;-77
2022/12/28 09:21:26;;;;;;;3.90;2.63;;;6.70;99.90;;;;;;5052304;28;20505;-77
2022/12/28 09:23:53;;;;;;;6.33;2.90;;;6.80;99.90;;;;;;5051998;28;20482;-78
2022/12/28 09:26:21;;;;;;;4.90;2.70;;;6.70;99.90;;;;;;5050679;28;20414;-77
2022/12/28 09:28:50;;;;;;;4.00;2.90;;;6.80;99.90;;;;;;5051703;28;20441;-77
2022/12/28 09:31:17;;;;;;;4.60;3.13;;;6.90;99.90;;;;;;5051480;28;20457;-77
2022/12/28 09:33:57;;;;;;;3.30;2.80;;;7.10;99.90;;;;;;5049999;28;20442;-77
2022/12/28 09:36:24;;;;;;;4.33;2.70;;;7.00;99.90;;;;;;5049797;28;20418;-77
2022/12/28 09:38:50;;;;;;;5.40;3.60;;;7.20;99.90;;;;;;5049929;28;20426;-77
2022/12/28 09:41:28;;;;;;;7.60;4.17;;;7.20;99.90;;;;;;5050408;28;20510;-77
2022/12/28 09:44:09;;;;;;;5.53;4.40;;;7.00;99.90;;;;;;5050901;28;20473;-77
2022/12/28 09:46:37;;;;;;;3.87;3.50;;;7.10;99.90;;;;;;5049817;28;20427;-77
2022/12/28 09:49:11;;;;;;;7.50;3.43;;;7.10;99.90;;;;;;5049367;28;20434;-77
2022/12/28 09:51:42;;;;;;;8.40;4.40;;;7.20;99.90;;;;;;5049684;28;20548;-77
2022/12/28 09:54:07;;;;;;;7.33;3.87;;;7.20;99.90;;;;;;5033447;28;20461;-77
2022/12/28 09:56:38;;;;;;;5.30;4.30;;;7.30;99.90;;;;;;5051115;28;20422;-77
2022/12/28 09:59:06;;;;;;;5.77;4.53;;;7.50;99.90;;;;;;5051020;28;20188;-77
2022/12/28 10:01:38;;;;;;;5.40;3.80;;;7.80;99.90;;;;;;5049531;28;20426;-77
2022/12/28 10:04:04;;;;;;;6.00;4.87;;;8.00;99.90;;;;;;5050880;28;20577;-77
2022/12/28 10:06:35;;;;;;;7.00;4.43;;;8.00;99.90;;;;;;5049529;28;20521;-77
2022/12/28 10:09:03;;;;;;;5.20;4.10;;;8.00;99.90;;;;;;5033055;28;20188;-77
2022/12/28 10:11:38;;;;;;;4.10;3.40;;;8.40;99.90;;;;;;5050343;28;20414;-77
2022/12/28 10:14:26;;;;;;;3.30;3.00;;;8.60;99.90;;;;;;5048746;28;20496;-77
2022/12/28 10:16:53;;;;;;;4.10;3.70;;;8.70;99.90;;;;;;5048947;28;20519;-77
2022/12/28 10:19:22;;;;;;;4.27;2.70;;;9.20;99.90;;;;;;5048772;28;20460;-78
2022/12/28 10:21:57;;;;;;;4.10;3.40;;;9.40;99.90;;;;;;5032728;28;20430;-77
2022/12/28 10:24:23;;;;;;;4.43;3.07;;;9.20;99.90;;;;;;5049664;28;20452;-75
2022/12/28 10:26:49;;;;;;;5.00;2.53;;;9.30;99.90;;;;;;5049291;28;20432;-77
2022/12/28 10:29:20;;;;;;;3.47;2.47;;;9.40;99.90;;;;;;5048295;28;20433;-76
2022/12/28 10:32:00;;;;;;;2.83;2.60;;;9.50;99.90;;;;;;5048166;28;20198;-77
2022/12/28 10:34:27;;;;;;;4.20;2.90;;;9.90;99.90;;;;;;5049425;28;20530;-77
2022/12/28 10:36:54;;;;;;;3.13;2.83;;;10.70;99.90;;;;;;5049313;28;20572;-77
2022/12/28 10:39:31;;;;;;;3.27;2.97;;;10.40;98.40;;;;;;5048050;28;20424;-77
2022/12/28 10:41:59;;;;;;;2.40;2.20;;;11.70;97.60;;;;;;5047382;28;20455;-77
2022/12/28 10:44:33;;;;;;;4.20;2.87;;;11.60;95.20;;;;;;5048631;28;21427;-76
2022/12/28 10:47:03;;;;;;;3.27;2.90;;;11.20;95.80;;;;;;5048497;28;20506;-77
2022/12/28 10:49:36;;;;;;;3.17;2.30;;;11.10;97.40;;;;;;5048350;28;20509;-77
2022/12/28 10:52:02;;;;;;;4.60;3.17;;;11.10;95.40;;;;;;5048514;28;20932;-77
2022/12/28 10:54:32;;;;;;;2.60;2.20;;;11.70;94.90;;;;;;5047995;28;20438;-76
2022/12/28 10:56:58;;;;;;;5.13;2.73;;;12.30;94.60;;;;;;5047085;28;20270;-77
2022/12/28 10:59:26;;;;;;;3.20;2.50;;;12.80;92.80;;;;;;5048231;28;21045;-77
2022/12/28 11:01:55;;;;;;;2.20;2.00;;;12.80;92.10;;;;;;5048063;28;20432;-77
2022/12/28 11:04:24;;;;;;;3.83;2.60;;;12.50;92.20;;;;;;5048011;28;20450;-77
2022/12/28 11:06:53;;;;;;;2.50;1.93;;;11.80;93.30;;;;;;5048337;28;20425;-77
2022/12/28 11:09:22;;;;;;;5.77;2.17;;;12.50;92.30;;;;;;5048179;28;20415;-77
2022/12/28 11:11:51;;;;;;;2.23;2.00;;;12.90;92.20;;;;;;5048837;28;20462;-77
2022/12/28 11:14:25;;;;;;;2.47;2.00;;;13.20;91.20;;;;;;5047187;28;20445;-78
2022/12/28 11:16:52;;;;;;;3.90;2.20;;;13.60;90.80;;;;;;5048596;28;20410;-77
2022/12/28 11:19:19;;;;;;;3.07;2.47;;;14.20;90.00;;;;;;5047258;28;20961;-78
2022/12/28 11:21:44;;;;;;;2.10;1.90;;;14.40;87.00;;;;;;5048634;28;20422;-77
2022/12/28 11:24:16;;;;;;;4.37;2.10;;;13.00;87.00;;;;;;5046847;28;20500;-77
2022/12/28 11:26:44;;;;;;;2.03;1.83;;;12.70;88.70;;;;;;5048426;28;20183;-78
2022/12/28 11:29:13;;;;;;;3.60;2.90;;;13.20;90.40;;;;;;5047174;28;20884;-78
2022/12/28 11:31:55;;;;;;;3.07;2.13;;;12.80;90.40;;;;;;5047107;28;20467;-77
2022/12/28 11:34:25;;;;;;;5.53;2.10;;;12.40;90.70;;;;;;5046784;28;20941;-78
2022/12/28 11:36:51;;;;;;;1.87;1.77;;;11.70;92.30;;;;;;5046731;28;20962;-77
2022/12/28 11:39:26;;;;;;;7.00;2.43;;;11.80;92.60;;;;;;5046471;28;20422;-78
2022/12/28 11:41:52;;;;;;;2.87;2.00;;;11.60;92.20;;;;;;5009038;28;1093614;-78
2022/12/28 11:44:41;;;;;;;3.17;2.20;;;11.60;93.10;;;;;;5047505;28;20244;-78
2022/12/28 11:47:16;;;;;;;2.10;1.83;;;11.00;93.90;;;;;;5041845;28;20433;-77
2022/12/28 11:49:43;;;;;;;2.93;1.90;;;10.20;94.80;;;;;;5049078;28;20413;-77
2022/12/28 11:52:22;;;;;;;2.27;2.07;;;10.20;95.70;;;;;;5047665;28;20786;-77
2022/12/28 11:54:56;;;;;;;4.90;1.80;;;10.10;96.60;;;;;;5050981;28;20450;-79
2022/12/28 11:57:42;;;;;;;4.13;2.00;;;9.60;98.10;;;;;;5054943;28;20530;-78
2022/12/28 12:00:20;;;;;;;2.70;1.83;;;9.50;99.30;;;;;;5058314;28;20430;-78
2022/12/28 12:02:51;;;;;;;4.43;2.53;;;9.40;99.90;;;;;;5061536;28;20469;-78
2022/12/28 12:05:35;;;;;;;5.37;2.30;;;8.90;99.90;;;;;;5055029;28;20465;-78
2022/12/28 12:08:11;;;;;;;2.40;2.20;;;8.90;99.90;;;;;;5059552;28;20433;-77
2022/12/28 12:10:38;;;;;;;2.57;2.10;;;8.90;99.90;;;;;;5072666;28;20409;-77
2022/12/28 12:13:25;;;;;;;4.77;2.20;;;8.80;99.90;;;;;;5072623;28;20407;-77
2022/12/28 12:15:58;;;;;;;5.20;2.07;;;8.50;99.90;;;;;;5072276;28;20418;-77
2022/12/28 12:18:27;;;;;;;3.33;2.13;;;8.50;99.90;;;;;;5063258;28;20448;-79
2022/12/28 12:21:19;;;;;;;2.97;1.73;;;8.50;99.90;;;;;;5056849;28;20425;-79
2022/12/28 12:23:50;;;;;;;3.17;1.97;;;8.60;99.90;;;;;;5049875;28;20469;-79
2022/12/28 12:26:26;;;;;;;3.63;1.83;;;8.60;99.90;;;;;;5054231;28;20454;-79
2022/12/28 12:29:03;;;;;;;2.60;2.40;;;8.70;99.90;;;;;;5055327;28;20431;-79
2022/12/28 12:31:37;;;;;;;1.77;1.60;;;8.70;99.90;;;;;;5055535;28;20428;-79
2022/12/28 12:34:14;;;;;;;2.40;2.00;;;8.60;99.90;;;;;;5054448;28;20448;-78
2022/12/28 12:37:02;;;;;;;2.80;2.00;;;8.60;99.90;;;;;;5054790;28;20818;-79
2022/12/28 12:39:39;;;;;;;4.43;2.27;;;8.60;99.90;;;;;;5054957;28;20416;-79
2022/12/28 12:42:07;;;;;;;2.07;1.80;;;8.50;99.90;;;;;;5053553;28;20441;-79
2022/12/28 12:44:46;;;;;;;2.83;1.67;;;8.40;99.90;;;;;;5053378;28;20452;-78
2022/12/28 12:47:30;;;;;;;3.67;1.70;;;8.40;99.90;;;;;;5055256;28;20441;-79
2022/12/28 12:50:19;;;;;;;3.20;1.67;;;8.40;99.90;;;;;;5054227;28;20860;-78
2022/12/28 12:53:15;;;;;;;2.70;1.80;;;8.40;99.90;;;;;;5055198;28;20921;-78
2022/12/28 12:55:59;;;;;;;3.03;2.10;;;8.40;99.90;;;;;;5055511;28;20430;-78
2022/12/28 12:58:45;;;;;;;1.63;1.53;;;8.60;99.90;;;;;;5055639;28;21082;-79
2022/12/28 13:01:20;;;;;;;4.07;1.50;;;8.50;99.90;;;;;;5054869;28;20433;-78
2022/12/28 13:03:52;;;;;;;1.30;1.20;;;8.60;99.90;;;;;;5054345;28;20603;-78
2022/12/28 13:06:24;;;;;;;1.90;1.73;;;8.60;99.90;;;;;;5052780;28;20422;-77
2022/12/28 13:08:52;;;;;;;5.13;1.70;;;8.60;99.90;;;;;;5053654;28;20897;-78
2022/12/28 13:11:19;;;;;;;3.10;1.20;;;8.60;99.90;;;;;;5054022;28;20422;-78
2022/12/28 13:13:47;;;;;;;1.57;1.00;;;8.70;99.90;;;;;;5053323;28;20492;-78
2022/12/28 13:16:19;;;;;;;2.47;1.60;;;8.80;99.90;;;;;;5053782;28;20441;-78
2022/12/28 13:18:54;;;;;;;1.73;1.50;;;8.80;99.90;;;;;;5052517;28;20523;-77
2022/12/28 13:21:20;;;;;;;1.50;1.20;;;8.80;99.90;;;;;;5053733;28;20465;-77
2022/12/28 13:23:47;;;;;;;2.90;1.70;;;8.80;99.90;;;;;;5052141;28;20504;-77
2022/12/28 13:26:14;;;;;;;7.10;1.60;;;8.70;99.90;;;;;;5049938;28;20802;-77
2022/12/28 13:28:51;;;;;;;3.23;1.50;;;8.60;99.90;;;;;;5049632;28;20479;-77
2022/12/28 13:31:27;;;;;;;1.90;1.70;;;8.60;99.90;;;;;;5051099;28;20424;-78
2022/12/28 13:34:23;;;;;;;1.57;1.27;;;8.70;99.90;;;;;;5050976;28;20441;-75
2022/12/28 13:36:58;;;;;;;1.40;1.20;;;8.70;99.90;;;;;;5049707;28;20991;-76